Time;durP1;ratioP1;P1;durP2;ratioP2;P2;SDS_P1;SDS_P2;PMS_P1;PMS_P2;Temp;Humidity;BMP_temperature;BMP_pressure;BME280_temperature;BME280_humidity;BME280_pressure;Samples;Min_cycle;Max_cycle;Signal;HPM_P1;HPM_P2
2024/01/25 00:00:33;;;;;;;17.90;17.20;;;10.90;99.90;;;;;;5070575;28;20208;-63
2024/01/25 00:02:59;;;;;;;17.77;17.07;;;10.90;99.90;;;;;;5069898;28;20622;-63
2024/01/25 00:05:26;;;;;;;18.53;17.83;;;10.90;99.90;;;;;;5070853;28;20227;-63
2024/01/25 00:07:54;;;;;;;18.30;17.60;;;10.80;99.90;;;;;;5070314;28;20863;-63
2024/01/25 00:10:21;;;;;;;18.20;17.50;;;10.80;99.90;;;;;;5070081;28;20203;-64
2024/01/25 00:12:48;;;;;;;18.05;17.35;;;10.90;99.90;;;;;;5075507;28;20211;-65
2024/01/25 00:15:15;;;;;;;18.20;17.50;;;10.90;99.90;;;;;;5077582;28;20218;-64
2024/01/25 00:17:42;;;;;;;18.00;17.37;;;11.00;99.90;;;;;;5074657;28;20227;-64
2024/01/25 00:20:10;;;;;;;17.63;16.93;;;11.00;99.90;;;;;;5070796;28;20203;-63
2024/01/25 00:22:37;;;;;;;19.30;18.60;;;11.00;99.90;;;;;;5073634;28;20274;-64
2024/01/25 00:25:06;;;;;;;19.08;18.38;;;10.90;99.90;;;;;;5073310;28;20708;-65
2024/01/25 00:27:33;;;;;;;18.57;17.87;;;10.80;99.90;;;;;;5073155;28;20234;-64
2024/01/25 00:30:00;;;;;;;18.63;17.93;;;10.90;99.90;;;;;;5074341;28;20527;-64
2024/01/25 00:32:26;;;;;;;16.70;16.07;;;10.80;99.90;;;;;;5075376;28;20214;-64
2024/01/25 00:34:54;;;;;;;18.00;17.30;;;10.80;99.90;;;;;;5072329;28;20211;-63
2024/01/25 00:37:21;;;;;;;18.53;17.53;;;10.80;99.90;;;;;;5070091;28;20223;-64
2024/01/25 00:39:49;;;;;;;16.93;16.30;;;10.80;99.90;;;;;;5069636;28;20207;-64
2024/01/25 00:42:21;;;;;;;17.23;16.63;;;10.90;99.90;;;;;;5069872;28;20276;-63
2024/01/25 00:44:48;;;;;;;15.88;15.18;;;10.90;99.90;;;;;;5069580;28;20225;-64
2024/01/25 00:47:16;;;;;;;15.83;15.13;;;11.00;99.90;;;;;;5069856;28;20223;-63
2024/01/25 00:49:43;;;;;;;18.33;17.63;;;11.10;99.90;;;;;;5066239;28;20233;-65
2024/01/25 00:52:11;;;;;;;15.70;15.10;;;11.10;99.90;;;;;;5067308;28;20199;-64
2024/01/25 00:54:38;;;;;;;17.10;16.40;;;11.10;99.90;;;;;;5069640;28;20242;-64
2024/01/25 00:57:06;;;;;;;15.93;15.33;;;11.10;99.90;;;;;;5069410;28;20226;-63
2024/01/25 00:59:34;;;;;;;16.03;15.43;;;11.10;99.90;;;;;;5071276;28;20234;-63
2024/01/25 01:02:05;;;;;;;16.10;15.50;;;11.20;99.90;;;;;;5070373;28;20207;-62
2024/01/25 01:04:32;;;;;;;15.37;14.77;;;11.20;99.90;;;;;;5069568;28;20922;-64
2024/01/25 01:06:59;;;;;;;15.13;14.53;;;11.20;99.90;;;;;;5070673;28;20287;-64
2024/01/25 01:09:26;;;;;;;14.07;13.57;;;11.30;99.90;;;;;;5070988;28;20199;-63
2024/01/25 01:11:52;;;;;;;13.57;13.07;;;11.40;99.90;;;;;;5069588;28;20202;-64
2024/01/25 01:14:19;;;;;;;13.87;13.37;;;11.40;99.90;;;;;;5069804;28;20203;-64
2024/01/25 01:16:47;;;;;;;13.73;13.23;;;11.50;99.90;;;;;;5069114;28;20238;-64
2024/01/25 01:19:14;;;;;;;13.50;13.00;;;11.60;99.90;;;;;;5069682;28;20238;-64
2024/01/25 01:21:43;;;;;;;14.10;13.60;;;11.60;99.90;;;;;;5065725;28;20689;-63
2024/01/25 01:24:10;;;;;;;14.20;13.70;;;11.70;99.90;;;;;;5067524;28;20203;-63
2024/01/25 01:26:37;;;;;;;14.07;13.57;;;11.80;99.90;;;;;;5071354;28;20285;-64
2024/01/25 01:29:04;;;;;;;13.90;13.40;;;11.80;99.90;;;;;;5071185;28;20203;-63
2024/01/25 01:31:30;;;;;;;14.00;13.50;;;11.80;99.90;;;;;;5071053;28;20236;-64
2024/01/25 01:33:58;;;;;;;13.73;13.23;;;11.90;99.90;;;;;;5071700;28;20582;-64
2024/01/25 01:36:25;;;;;;;14.43;13.83;;;11.90;99.90;;;;;;5071732;28;20215;-65
2024/01/25 01:38:52;;;;;;;12.40;11.90;;;11.90;99.90;;;;;;5071791;28;20611;-64
2024/01/25 01:41:19;;;;;;;12.73;12.23;;;12.00;99.90;;;;;;5070912;28;20207;-63
2024/01/25 01:43:46;;;;;;;12.83;12.33;;;12.00;99.90;;;;;;5071317;28;20196;-64
2024/01/25 01:46:18;;;;;;;14.23;13.73;;;12.00;99.90;;;;;;5071683;28;20219;-63
2024/01/25 01:48:45;;;;;;;14.80;14.20;;;11.90;99.90;;;;;;5069235;28;20689;-63
2024/01/25 01:51:13;;;;;;;13.77;13.27;;;11.90;99.90;;;;;;5071258;28;20318;-63
2024/01/25 01:53:41;;;;;;;15.53;14.93;;;11.80;99.90;;;;;;5069684;28;20201;-62
2024/01/25 01:56:08;;;;;;;14.65;14.15;;;12.00;99.90;;;;;;5071255;28;20681;-62
2024/01/25 01:58:35;;;;;;;15.10;14.50;;;11.80;99.90;;;;;;5070350;28;20253;-64
2024/01/25 02:01:03;;;;;;;14.63;13.93;;;12.00;99.90;;;;;;5070515;28;20208;-64
2024/01/25 02:03:30;;;;;;;15.20;14.60;;;11.70;99.90;;;;;;5071895;28;20934;-64
2024/01/25 02:06:02;;;;;;;14.73;14.13;;;11.60;99.90;;;;;;5071689;28;20234;-64
2024/01/25 02:08:30;;;;;;;14.33;13.83;;;11.60;99.90;;;;;;5071212;28;20670;-64
2024/01/25 02:10:56;;;;;;;14.65;14.05;;;11.70;99.90;;;;;;5070397;28;20258;-64
2024/01/25 02:13:23;;;;;;;14.63;14.02;;;11.60;99.90;;;;;;5071696;28;20207;-64
2024/01/25 02:15:50;;;;;;;14.70;14.20;;;11.60;99.90;;;;;;5073063;28;20348;-63
2024/01/25 02:18:17;;;;;;;14.80;14.20;;;11.60;99.90;;;;;;5072686;28;20219;-63
2024/01/25 02:20:43;;;;;;;16.80;16.20;;;11.60;99.90;;;;;;5070937;28;20211;-62
2024/01/25 02:23:12;;;;;;;20.57;19.77;;;11.50;99.90;;;;;;5068995;28;20306;-62
2024/01/25 02:25:38;;;;;;;41.75;39.90;;;11.40;99.90;;;;;;5034021;28;1050661;-64
2024/01/25 02:28:06;;;;;;;23.20;22.33;;;11.30;99.90;;;;;;5071832;28;20661;-62
2024/01/25 02:30:33;;;;;;;23.60;22.70;;;11.10;99.90;;;;;;5071581;28;20199;-63
2024/01/25 02:32:59;;;;;;;23.10;22.30;;;11.00;99.90;;;;;;5072010;28;20681;-62
2024/01/25 02:35:26;;;;;;;22.02;21.17;;;10.90;99.90;;;;;;5071631;28;20204;-63
2024/01/25 02:37:53;;;;;;;27.33;26.23;;;10.80;99.90;;;;;;5071801;28;20499;-63
2024/01/25 02:40:21;;;;;;;30.77;29.53;;;10.70;99.90;;;;;;5071233;28;20203;-63
2024/01/25 02:42:48;;;;;;;27.50;26.40;;;10.60;99.90;;;;;;5072314;28;20574;-63
2024/01/25 02:45:15;;;;;;;23.27;22.27;;;10.50;99.90;;;;;;5067660;28;20652;-63
2024/01/25 02:47:42;;;;;;;23.80;22.90;;;10.40;99.90;;;;;;5072203;28;20206;-63
2024/01/25 02:50:09;;;;;;;22.37;21.50;;;10.50;99.90;;;;;;5071093;28;20195;-63
2024/01/25 02:52:36;;;;;;;23.07;22.17;;;10.50;99.90;;;;;;5071281;28;20649;-64
2024/01/25 02:55:03;;;;;;;22.13;21.23;;;10.50;99.90;;;;;;5071317;28;20211;-62
2024/01/25 02:57:32;;;;;;;22.87;21.90;;;10.50;99.90;;;;;;5073865;28;20309;-63
2024/01/25 02:59:59;;;;;;;20.77;19.87;;;10.60;99.90;;;;;;5070664;28;20219;-62
2024/01/25 03:02:25;;;;;;;24.97;23.87;;;10.60;99.90;;;;;;5071089;28;20207;-62
2024/01/25 03:04:52;;;;;;;20.80;19.93;;;10.50;99.90;;;;;;5068059;28;20579;-65
2024/01/25 03:07:19;;;;;;;20.40;19.60;;;10.50;99.90;;;;;;5071260;28;20226;-64
2024/01/25 03:09:46;;;;;;;29.73;28.43;;;10.50;99.90;;;;;;5070356;28;20195;-62
2024/01/25 03:12:13;;;;;;;19.73;19.03;;;10.50;99.90;;;;;;5070807;28;20230;-64
2024/01/25 03:14:41;;;;;;;21.00;20.13;;;10.40;99.90;;;;;;5071157;28;20527;-64
2024/01/25 03:17:07;;;;;;;20.03;19.13;;;10.50;99.90;;;;;;5070469;28;20230;-63
2024/01/25 03:19:34;;;;;;;19.17;18.27;;;10.50;99.90;;;;;;5070403;28;20220;-62
2024/01/25 03:22:01;;;;;;;18.70;17.80;;;10.50;99.90;;;;;;5070554;28;20211;-64
2024/01/25 03:24:28;;;;;;;18.43;17.63;;;10.50;99.90;;;;;;5069951;28;20203;-62
2024/01/25 03:26:55;;;;;;;17.80;17.10;;;10.60;99.90;;;;;;5070704;28;20245;-63
2024/01/25 03:29:22;;;;;;;18.33;17.53;;;10.60;99.90;;;;;;5070797;28;21522;-63
2024/01/25 03:31:50;;;;;;;17.47;16.77;;;10.50;99.90;;;;;;5069626;28;20852;-63
2024/01/25 03:34:17;;;;;;;17.67;16.97;;;10.60;99.90;;;;;;5071949;28;20659;-63
2024/01/25 03:36:43;;;;;;;18.90;18.10;;;10.60;99.90;;;;;;5072174;28;20249;-63
2024/01/25 03:39:10;;;;;;;19.13;18.33;;;10.60;99.90;;;;;;5069801;28;20346;-64
2024/01/25 03:41:37;;;;;;;20.17;19.27;;;10.50;99.90;;;;;;5070795;28;20598;-64
2024/01/25 03:44:04;;;;;;;20.23;19.33;;;10.50;99.90;;;;;;5070341;28;20216;-62
2024/01/25 03:46:29;;;;;;;20.43;19.53;;;10.50;99.90;;;;;;5070834;28;20230;-63
2024/01/25 03:48:57;;;;;;;20.40;19.50;;;10.50;99.90;;;;;;5070228;28;20199;-63
2024/01/25 03:51:24;;;;;;;19.87;19.13;;;10.50;99.90;;;;;;5070397;28;20199;-63
2024/01/25 03:53:52;;;;;;;21.17;20.33;;;10.40;99.90;;;;;;5071366;28;20227;-63
2024/01/25 03:56:19;;;;;;;20.27;19.47;;;10.40;99.90;;;;;;5070912;28;20326;-63
2024/01/25 03:58:47;;;;;;;21.23;20.23;;;10.40;99.90;;;;;;5072300;28;20233;-62
2024/01/25 04:01:13;;;;;;;20.23;19.43;;;10.40;99.90;;;;;;5070581;28;20582;-62
2024/01/25 04:03:41;;;;;;;21.40;20.60;;;10.40;99.90;;;;;;5071083;28;20203;-63
2024/01/25 04:06:09;;;;;;;21.50;20.70;;;10.40;99.90;;;;;;5070714;28;20226;-63
2024/01/25 04:08:36;;;;;;;19.60;18.80;;;10.50;99.90;;;;;;5070984;28;20218;-64
2024/01/25 04:11:02;;;;;;;20.23;19.43;;;10.40;99.90;;;;;;5070032;28;20215;-62
2024/01/25 04:13:29;;;;;;;17.93;17.20;;;10.50;99.90;;;;;;5071007;28;20387;-64
2024/01/25 04:15:56;;;;;;;20.10;19.30;;;10.50;99.90;;;;;;5069326;28;20223;-63
2024/01/25 04:18:22;;;;;;;18.60;17.80;;;10.60;99.90;;;;;;5069849;28;20249;-63
2024/01/25 04:20:50;;;;;;;19.88;19.08;;;10.50;99.90;;;;;;5070301;28;20211;-62
2024/01/25 04:23:18;;;;;;;20.40;19.60;;;10.50;99.90;;;;;;5071350;28;20204;-64
2024/01/25 04:25:45;;;;;;;20.17;19.37;;;10.40;99.90;;;;;;5071118;28;20239;-63
2024/01/25 04:28:12;;;;;;;20.77;19.97;;;10.50;99.90;;;;;;5066274;28;20208;-64
2024/01/25 04:30:39;;;;;;;22.00;21.00;;;10.50;99.90;;;;;;5069772;28;20200;-63
2024/01/25 04:33:06;;;;;;;18.53;17.80;;;10.50;99.90;;;;;;5070364;28;20206;-64
2024/01/25 04:35:33;;;;;;;17.50;16.80;;;10.50;99.90;;;;;;5070603;28;20604;-63
2024/01/25 04:37:59;;;;;;;17.27;16.57;;;10.50;99.90;;;;;;5069913;28;20207;-64
2024/01/25 04:40:27;;;;;;;16.63;16.00;;;10.50;99.90;;;;;;5069552;28;20227;-62
2024/01/25 04:42:54;;;;;;;18.13;17.43;;;10.60;99.90;;;;;;5070351;28;20207;-63
2024/01/25 04:45:21;;;;;;;16.67;15.97;;;10.60;99.90;;;;;;5069484;28;20226;-64
2024/01/25 04:47:47;;;;;;;17.20;16.60;;;10.70;99.90;;;;;;5068834;28;20207;-63
2024/01/25 04:50:14;;;;;;;17.67;16.97;;;10.70;99.90;;;;;;5066550;28;20654;-62
2024/01/25 04:52:41;;;;;;;17.93;17.23;;;10.80;99.90;;;;;;5069280;28;20207;-63
2024/01/25 04:55:09;;;;;;;18.20;17.50;;;10.70;99.90;;;;;;5070641;28;20211;-64
2024/01/25 04:57:37;;;;;;;17.37;16.73;;;10.80;99.90;;;;;;5070654;28;20234;-63
2024/01/25 05:00:04;;;;;;;16.70;16.03;;;10.70;99.90;;;;;;5070262;28;20225;-67
2024/01/25 05:02:31;;;;;;;15.50;14.90;;;10.80;99.90;;;;;;5070946;28;20253;-63
2024/01/25 05:04:58;;;;;;;16.43;15.83;;;10.70;99.90;;;;;;5072149;28;20211;-64
2024/01/25 05:07:24;;;;;;;15.83;15.23;;;10.80;99.90;;;;;;5084657;28;20203;-64
2024/01/25 05:09:51;;;;;;;17.27;16.67;;;10.70;99.90;;;;;;5089262;28;20207;-64
2024/01/25 05:12:18;;;;;;;17.13;16.53;;;10.70;99.90;;;;;;5090191;28;20263;-64
2024/01/25 05:14:46;;;;;;;13.77;13.27;;;10.70;99.90;;;;;;5089996;28;20196;-63
2024/01/25 05:17:13;;;;;;;14.37;13.87;;;10.70;99.90;;;;;;5090822;28;20520;-62
2024/01/25 05:19:40;;;;;;;15.30;14.77;;;10.80;99.90;;;;;;5086996;28;20689;-65
2024/01/25 05:22:07;;;;;;;16.10;15.47;;;10.80;99.90;;;;;;5072069;28;20211;-63
2024/01/25 05:24:34;;;;;;;14.27;13.77;;;10.80;99.90;;;;;;5072307;28;20202;-64
2024/01/25 05:27:01;;;;;;;16.80;16.20;;;10.80;99.90;;;;;;5072273;28;20277;-63
2024/01/25 05:29:28;;;;;;;14.53;14.03;;;10.90;99.90;;;;;;5074208;28;20218;-64
2024/01/25 05:31:57;;;;;;;17.05;16.45;;;10.80;99.90;;;;;;5075421;28;20215;-63
2024/01/25 05:34:24;;;;;;;15.87;15.27;;;10.70;99.90;;;;;;5071240;28;20196;-64
2024/01/25 05:36:51;;;;;;;14.73;14.23;;;10.70;99.90;;;;;;5073026;28;20229;-63
2024/01/25 05:39:18;;;;;;;14.60;14.07;;;10.60;99.90;;;;;;5075276;28;20223;-63
2024/01/25 05:41:45;;;;;;;17.27;16.67;;;10.70;99.90;;;;;;5073114;28;20199;-63
2024/01/25 05:44:13;;;;;;;16.08;15.48;;;10.70;99.90;;;;;;5071015;28;20210;-63
2024/01/25 05:46:40;;;;;;;14.57;13.97;;;10.60;99.90;;;;;;5071161;28;20230;-64
2024/01/25 05:49:08;;;;;;;15.70;15.10;;;10.50;99.90;;;;;;5070692;28;20287;-63
2024/01/25 05:51:35;;;;;;;13.65;13.15;;;10.50;99.90;;;;;;5070075;28;20207;-64
2024/01/25 05:54:02;;;;;;;14.70;14.13;;;10.60;99.90;;;;;;5070572;28;20203;-63
2024/01/25 05:56:29;;;;;;;14.00;13.50;;;10.70;99.90;;;;;;5069585;28;20225;-63
2024/01/25 05:58:55;;;;;;;14.67;14.17;;;10.70;99.90;;;;;;5070331;28;20211;-64
2024/01/25 06:01:22;;;;;;;16.57;15.90;;;10.80;99.90;;;;;;5066075;28;20219;-63
2024/01/25 06:03:49;;;;;;;15.67;15.07;;;10.80;99.90;;;;;;5070858;28;20681;-63
2024/01/25 06:06:17;;;;;;;17.98;17.27;;;10.80;99.90;;;;;;5075986;28;20223;-62
2024/01/25 06:08:44;;;;;;;16.93;16.30;;;10.80;99.90;;;;;;5076334;28;20648;-64
2024/01/25 06:11:11;;;;;;;18.37;17.67;;;10.80;99.90;;;;;;5076720;28;20206;-64
2024/01/25 06:13:37;;;;;;;17.30;16.63;;;10.80;99.90;;;;;;5079876;28;20237;-64
2024/01/25 06:16:05;;;;;;;18.13;17.45;;;10.80;99.90;;;;;;5079514;28;20227;-63
2024/01/25 06:18:32;;;;;;;18.40;17.73;;;10.70;99.90;;;;;;5078055;28;20206;-63
2024/01/25 06:20:58;;;;;;;18.27;17.60;;;10.70;99.90;;;;;;5077461;28;20222;-62
2024/01/25 06:23:26;;;;;;;18.83;18.17;;;10.70;99.90;;;;;;5078705;28;20215;-63
2024/01/25 06:25:53;;;;;;;19.77;19.07;;;10.70;99.90;;;;;;5077440;28;20277;-64
2024/01/25 06:28:22;;;;;;;18.87;18.17;;;10.70;99.90;;;;;;5078005;28;20557;-62
2024/01/25 06:30:49;;;;;;;19.47;18.77;;;10.60;99.90;;;;;;5075581;28;20199;-62
2024/01/25 06:33:16;;;;;;;18.87;18.17;;;10.60;99.90;;;;;;5075778;28;20256;-63
2024/01/25 06:35:42;;;;;;;15.50;14.90;;;10.60;99.90;;;;;;5075850;28;20219;-63
2024/01/25 06:38:09;;;;;;;19.00;18.30;;;10.60;99.90;;;;;;5072895;28;20203;-63
2024/01/25 06:40:38;;;;;;;18.20;17.50;;;10.70;99.90;;;;;;5072317;28;20230;-63
2024/01/25 06:43:05;;;;;;;17.80;17.17;;;10.60;99.90;;;;;;5070237;28;20216;-62
2024/01/25 06:45:32;;;;;;;19.37;18.67;;;10.70;99.90;;;;;;5070725;28;20234;-62
2024/01/25 06:47:58;;;;;;;19.43;18.73;;;10.70;99.90;;;;;;5070302;28;20211;-63
2024/01/25 06:50:25;;;;;;;19.50;18.80;;;10.70;99.90;;;;;;5071503;28;20195;-64
2024/01/25 06:52:53;;;;;;;19.50;18.80;;;10.60;99.90;;;;;;5072427;28;20203;-64
2024/01/25 06:55:20;;;;;;;17.83;17.13;;;10.60;99.90;;;;;;5070933;28;20257;-64
2024/01/25 06:57:48;;;;;;;18.00;17.30;;;10.60;99.90;;;;;;5069340;28;20657;-68
2024/01/25 07:00:16;;;;;;;17.17;16.57;;;10.50;99.90;;;;;;5071592;28;20227;-68
2024/01/25 07:02:43;;;;;;;19.77;19.03;;;10.60;99.90;;;;;;5073198;28;20195;-67
2024/01/25 07:05:09;;;;;;;19.27;18.57;;;10.50;99.90;;;;;;5073163;28;20553;-68
2024/01/25 07:07:38;;;;;;;19.43;18.73;;;10.50;99.90;;;;;;5072791;28;20226;-68
2024/01/25 07:10:05;;;;;;;18.80;18.10;;;10.50;99.90;;;;;;5072453;28;20283;-68
2024/01/25 07:12:32;;;;;;;17.20;16.60;;;10.50;99.90;;;;;;5073324;28;20241;-67
2024/01/25 07:15:00;;;;;;;16.63;16.02;;;10.50;99.90;;;;;;5071558;28;20206;-67
2024/01/25 07:17:27;;;;;;;16.87;16.27;;;10.50;99.90;;;;;;5072680;28;20223;-67
2024/01/25 07:19:54;;;;;;;19.05;18.35;;;10.50;99.90;;;;;;5072194;28;20224;-67
2024/01/25 07:22:22;;;;;;;19.37;18.67;;;10.60;99.90;;;;;;5069864;28;20927;-67
2024/01/25 07:24:49;;;;;;;18.63;17.93;;;10.60;99.90;;;;;;5071461;28;20223;-67
2024/01/25 07:27:15;;;;;;;18.27;17.57;;;10.60;99.90;;;;;;5071605;28;20254;-69
2024/01/25 07:29:45;;;;;;;17.20;16.60;;;10.60;99.90;;;;;;5068359;28;20579;-68
2024/01/25 07:32:13;;;;;;;17.73;17.13;;;10.60;99.90;;;;;;5071969;28;20280;-68
2024/01/25 07:34:40;;;;;;;17.37;16.77;;;10.70;99.90;;;;;;5072144;28;20199;-67
2024/01/25 07:37:06;;;;;;;17.40;16.80;;;10.70;99.90;;;;;;5071807;28;20234;-69
2024/01/25 07:39:33;;;;;;;20.70;19.90;;;10.70;99.90;;;;;;5071548;28;20203;-68
2024/01/25 07:42:00;;;;;;;20.23;19.50;;;10.60;99.90;;;;;;5071452;28;20199;-67
2024/01/25 07:44:26;;;;;;;17.70;17.07;;;10.50;99.90;;;;;;5071662;28;20203;-66
2024/01/25 07:46:53;;;;;;;17.40;16.80;;;10.50;99.90;;;;;;5071908;28;20341;-68
2024/01/25 07:49:21;;;;;;;18.17;17.47;;;10.50;99.90;;;;;;5071459;28;20196;-67
2024/01/25 07:51:48;;;;;;;18.63;17.97;;;10.50;99.90;;;;;;5071115;28;20211;-67
2024/01/25 07:54:15;;;;;;;18.47;17.77;;;10.40;99.90;;;;;;5071211;28;20306;-67
2024/01/25 07:56:42;;;;;;;18.43;17.77;;;10.40;99.90;;;;;;5071606;28;20792;-67
2024/01/25 07:59:09;;;;;;;16.10;15.50;;;10.40;99.90;;;;;;5068036;28;20215;-67
2024/01/25 08:01:36;;;;;;;17.97;17.37;;;10.50;99.90;;;;;;5070601;28;20226;-68
2024/01/25 08:04:04;;;;;;;18.75;18.05;;;10.50;99.90;;;;;;5070847;28;20217;-67
2024/01/25 08:06:32;;;;;;;18.27;17.58;;;10.60;99.90;;;;;;5070513;28;20222;-68
2024/01/25 08:08:59;;;;;;;19.20;18.50;;;10.70;99.90;;;;;;5071697;28;20214;-68
2024/01/25 08:11:26;;;;;;;16.63;16.03;;;10.60;99.90;;;;;;5070310;28;20195;-68
2024/01/25 08:13:52;;;;;;;24.20;23.30;;;10.70;99.90;;;;;;5071007;28;20203;-69
2024/01/25 08:16:20;;;;;;;18.57;17.90;;;10.70;99.90;;;;;;5071030;28;20234;-67
2024/01/25 08:18:46;;;;;;;17.67;17.07;;;10.70;99.90;;;;;;5071550;28;20290;-67
2024/01/25 08:21:14;;;;;;;21.45;20.60;;;10.70;99.90;;;;;;5069714;28;20229;-67
2024/01/25 08:23:42;;;;;;;18.27;17.65;;;10.70;99.90;;;;;;5071839;28;20657;-68
2024/01/25 08:26:09;;;;;;;19.93;19.23;;;10.60;99.90;;;;;;5073604;28;20254;-67
2024/01/25 08:28:36;;;;;;;17.93;17.33;;;10.60;99.90;;;;;;5082089;28;20199;-67
2024/01/25 08:31:03;;;;;;;19.38;18.63;;;10.60;99.90;;;;;;5082830;28;20226;-68
2024/01/25 08:33:30;;;;;;;16.73;16.13;;;10.50;99.90;;;;;;5080588;28;20276;-67
2024/01/25 08:35:56;;;;;;;15.48;14.88;;;10.50;99.90;;;;;;5081935;28;20227;-68
2024/01/25 08:38:23;;;;;;;20.23;19.43;;;10.60;99.90;;;;;;5079980;28;20203;-68
2024/01/25 08:40:51;;;;;;;17.57;16.90;;;10.60;99.90;;;;;;5075814;28;20231;-68
2024/01/25 08:43:18;;;;;;;19.25;18.55;;;10.70;99.90;;;;;;5072515;28;20203;-67
2024/01/25 08:45:45;;;;;;;20.60;19.80;;;10.80;99.90;;;;;;5071416;28;20218;-68
2024/01/25 08:48:13;;;;;;;20.73;20.00;;;10.80;99.90;;;;;;5069811;28;20692;-67
2024/01/25 08:50:39;;;;;;;21.03;20.27;;;10.80;99.90;;;;;;5070955;28;20264;-69
2024/01/25 08:53:06;;;;;;;21.77;20.93;;;10.90;99.90;;;;;;5071250;28;20762;-68
2024/01/25 08:55:33;;;;;;;22.37;21.57;;;10.90;99.90;;;;;;5076474;28;20203;-68
2024/01/25 08:58:01;;;;;;;21.80;21.00;;;10.90;99.90;;;;;;5078292;28;20207;-68
2024/01/25 09:00:28;;;;;;;19.97;19.27;;;10.90;99.90;;;;;;5071220;28;20231;-67
2024/01/25 09:02:54;;;;;;;19.83;19.03;;;10.90;99.90;;;;;;5070622;28;20218;-67
2024/01/25 09:05:21;;;;;;;20.87;20.10;;;10.90;99.90;;;;;;5069184;28;20211;-68
2024/01/25 09:07:50;;;;;;;20.37;19.67;;;10.90;99.90;;;;;;5069892;28;20591;-68
2024/01/25 09:10:17;;;;;;;19.47;18.77;;;10.90;99.90;;;;;;5069888;28;20253;-67
2024/01/25 09:12:44;;;;;;;19.87;19.10;;;10.90;99.90;;;;;;5071003;28;20222;-67
2024/01/25 09:15:12;;;;;;;19.60;18.90;;;11.00;99.90;;;;;;5069995;28;20203;-67
2024/01/25 09:17:39;;;;;;;20.77;20.00;;;11.00;99.90;;;;;;5069983;28;20276;-67
2024/01/25 09:20:07;;;;;;;18.80;18.10;;;11.00;99.90;;;;;;5068688;28;20650;-68
2024/01/25 09:22:34;;;;;;;19.67;18.97;;;11.10;99.90;;;;;;5070249;28;20203;-68
2024/01/25 09:25:00;;;;;;;18.90;18.20;;;11.10;99.90;;;;;;5070092;28;20207;-69
2024/01/25 09:27:27;;;;;;;18.07;17.37;;;11.20;99.90;;;;;;5072050;28;20227;-67
2024/01/25 09:29:54;;;;;;;19.47;18.77;;;11.20;99.90;;;;;;5069143;28;20207;-69
2024/01/25 09:32:22;;;;;;;18.10;17.43;;;11.20;99.90;;;;;;5069945;28;20203;-68
2024/01/25 09:34:49;;;;;;;19.00;18.30;;;11.30;99.90;;;;;;5069741;28;20212;-67
2024/01/25 09:37:17;;;;;;;19.53;18.83;;;11.30;99.90;;;;;;5069713;28;20243;-68
2024/01/25 09:39:43;;;;;;;20.00;19.30;;;11.30;99.90;;;;;;5069217;28;20203;-67
2024/01/25 09:42:12;;;;;;;17.70;17.10;;;11.30;99.90;;;;;;5069039;28;20227;-67
2024/01/25 09:44:40;;;;;;;17.80;17.20;;;11.30;99.90;;;;;;5069326;28;20211;-67
2024/01/25 09:47:07;;;;;;;17.90;17.20;;;11.30;99.90;;;;;;5071760;28;20610;-69
2024/01/25 09:49:35;;;;;;;17.73;17.13;;;11.40;99.90;;;;;;5072746;28;20219;-68
2024/01/25 09:52:04;;;;;;;19.73;19.03;;;11.40;99.90;;;;;;5073298;28;20207;-67
2024/01/25 09:54:33;;;;;;;19.30;18.60;;;11.40;99.90;;;;;;5072389;28;20699;-69
2024/01/25 09:57:00;;;;;;;18.13;17.53;;;11.50;99.90;;;;;;5073094;28;20237;-68
2024/01/25 09:59:27;;;;;;;18.03;17.43;;;11.50;99.90;;;;;;5073005;28;20617;-68
2024/01/25 10:01:54;;;;;;;18.83;18.13;;;11.60;99.90;;;;;;5069842;28;20242;-67
2024/01/25 10:04:23;;;;;;;19.03;18.33;;;11.60;99.90;;;;;;5073539;28;20199;-67
2024/01/25 10:06:51;;;;;;;18.47;17.77;;;11.60;99.90;;;;;;5073157;28;20302;-67
2024/01/25 10:09:18;;;;;;;17.65;17.05;;;11.70;99.90;;;;;;5074740;28;20669;-67
2024/01/25 10:11:45;;;;;;;17.27;16.67;;;11.70;99.90;;;;;;5073587;28;20734;-67
2024/01/25 10:14:12;;;;;;;18.23;17.42;;;11.80;99.90;;;;;;5073810;28;20290;-66
2024/01/25 10:16:38;;;;;;;15.27;14.77;;;11.80;99.90;;;;;;5073178;28;20219;-67
2024/01/25 10:19:08;;;;;;;16.20;15.60;;;11.80;99.90;;;;;;5073777;28;20206;-68
2024/01/25 10:21:37;;;;;;;15.20;14.70;;;11.90;99.90;;;;;;5073492;28;20273;-68
2024/01/25 10:24:06;;;;;;;15.97;15.37;;;11.90;99.90;;;;;;5073512;28;20662;-69
2024/01/25 10:26:35;;;;;;;15.80;15.20;;;12.00;99.90;;;;;;5073458;28;20235;-67
2024/01/25 10:29:02;;;;;;;15.60;15.10;;;12.00;99.90;;;;;;5073289;28;20294;-68
2024/01/25 10:31:30;;;;;;;16.40;15.80;;;12.00;99.90;;;;;;5072067;28;20231;-68
2024/01/25 10:33:57;;;;;;;16.20;15.60;;;12.10;99.90;;;;;;5072489;28;20546;-67
2024/01/25 10:36:24;;;;;;;16.83;16.23;;;12.20;99.90;;;;;;5071798;28;20223;-68
2024/01/25 10:38:51;;;;;;;16.23;15.67;;;12.30;99.90;;;;;;5072331;28;20213;-69
2024/01/25 10:41:20;;;;;;;15.80;15.20;;;12.30;99.90;;;;;;5071457;28;20226;-68
2024/01/25 10:43:47;;;;;;;15.93;15.40;;;12.30;99.90;;;;;;5072604;28;20210;-67
2024/01/25 10:46:14;;;;;;;13.87;13.33;;;12.30;99.90;;;;;;5071731;28;20223;-66
2024/01/25 10:48:42;;;;;;;15.13;14.57;;;12.30;99.90;;;;;;5072384;28;20677;-68
2024/01/25 10:51:10;;;;;;;15.70;15.13;;;12.40;99.90;;;;;;5071113;28;20801;-68
2024/01/25 10:53:38;;;;;;;14.00;13.50;;;12.30;99.90;;;;;;5072721;28;20208;-68
2024/01/25 10:56:06;;;;;;;12.50;12.10;;;12.30;99.90;;;;;;5071994;28;20223;-68
2024/01/25 10:58:35;;;;;;;12.47;12.03;;;12.20;99.90;;;;;;5071478;28;20246;-68
2024/01/25 11:01:03;;;;;;;12.77;12.27;;;12.30;99.90;;;;;;5070952;28;20219;-68
2024/01/25 11:03:30;;;;;;;12.38;11.98;;;12.30;99.90;;;;;;5070690;28;20257;-69
2024/01/25 11:06:07;;;;;;;12.23;11.83;;;12.30;99.90;;;;;;5071583;28;20230;-68
2024/01/25 11:08:37;;;;;;;14.13;13.60;;;12.40;99.90;;;;;;5072409;28;20249;-68
2024/01/25 11:11:06;;;;;;;13.67;13.17;;;12.50;99.90;;;;;;5073685;28;20199;-68
2024/01/25 11:13:34;;;;;;;13.23;12.73;;;12.50;99.90;;;;;;5073584;28;20893;-68
2024/01/25 11:16:13;;;;;;;13.43;12.93;;;12.50;99.90;;;;;;5075233;28;20290;-67
2024/01/25 11:18:49;;;;;;;13.93;13.43;;;12.40;99.90;;;;;;5072350;28;20206;-68
2024/01/25 11:21:23;;;;;;;13.32;12.82;;;12.40;99.90;;;;;;5071117;28;20265;-67
2024/01/25 11:23:59;;;;;;;12.83;12.33;;;12.40;99.90;;;;;;5072393;28;20198;-68
2024/01/25 11:26:26;;;;;;;13.63;13.13;;;12.40;99.90;;;;;;5070867;28;20611;-67
2024/01/25 11:28:55;;;;;;;12.90;12.43;;;12.40;99.90;;;;;;5070970;28;20612;-67
2024/01/25 11:31:23;;;;;;;13.13;12.63;;;12.40;99.90;;;;;;5070173;28;20203;-68
2024/01/25 11:33:51;;;;;;;14.27;13.67;;;12.40;99.90;;;;;;5071568;28;20623;-68
2024/01/25 11:36:21;;;;;;;14.30;13.80;;;12.40;99.90;;;;;;5070750;28;20231;-68
2024/01/25 11:38:48;;;;;;;13.30;12.83;;;12.40;99.90;;;;;;5070733;28;20222;-68
2024/01/25 11:41:15;;;;;;;14.40;13.90;;;12.40;99.90;;;;;;5069605;28;20970;-68
2024/01/25 11:43:42;;;;;;;13.75;13.05;;;12.40;99.90;;;;;;5069473;28;20230;-68
2024/01/25 11:46:10;;;;;;;14.73;14.23;;;12.40;99.90;;;;;;5068103;28;20256;-68
2024/01/25 11:48:40;;;;;;;13.77;13.27;;;12.50;99.90;;;;;;5069705;28;20210;-68
2024/01/25 11:51:07;;;;;;;14.00;13.50;;;12.50;99.90;;;;;;5069642;28;20252;-68
2024/01/25 11:53:34;;;;;;;14.13;13.63;;;12.50;99.90;;;;;;5070094;28;20211;-69
2024/01/25 11:56:01;;;;;;;13.93;13.43;;;12.40;99.90;;;;;;5070390;28;20230;-68
2024/01/25 11:58:28;;;;;;;14.50;13.90;;;12.40;99.90;;;;;;5069159;28;20261;-68
2024/01/25 12:00:55;;;;;;;14.27;13.77;;;12.50;99.90;;;;;;5069202;28;20203;-68
2024/01/25 12:03:23;;;;;;;14.70;14.20;;;12.50;99.90;;;;;;5070334;28;20232;-68
2024/01/25 12:05:51;;;;;;;14.10;13.60;;;12.50;99.90;;;;;;5070546;28;20614;-68
2024/01/25 12:08:18;;;;;;;14.15;13.65;;;12.50;99.90;;;;;;5069881;28;20214;-70
2024/01/25 12:10:45;;;;;;;14.87;14.37;;;12.50;99.90;;;;;;5070984;28;20195;-69
2024/01/25 12:13:11;;;;;;;14.53;14.03;;;12.50;99.90;;;;;;5078964;28;20207;-69
2024/01/25 12:15:38;;;;;;;14.53;14.03;;;12.50;99.90;;;;;;5079282;28;20698;-68
2024/01/25 12:18:07;;;;;;;13.97;13.47;;;12.50;99.90;;;;;;5073362;28;20207;-68
2024/01/25 12:20:36;;;;;;;14.47;13.97;;;12.40;99.90;;;;;;5069305;28;20199;-68
2024/01/25 12:23:03;;;;;;;14.57;14.07;;;12.40;99.90;;;;;;5070119;28;20243;-68
2024/01/25 12:25:31;;;;;;;15.37;14.87;;;12.40;99.90;;;;;;5069513;28;20220;-67